sensor_id;sensor_type;location;lat;lon;timestamp;pressure;altitude;pressure_sealevel;temperature;humidity
63663;BME280;49815;51.618;0.336;2022-10-26T00:00:37;100082.99;;;15.31;54.95
63663;BME280;49815;51.618;0.336;2022-10-26T00:03:03;100079.35;;;15.54;54.62
63663;BME280;49815;51.618;0.336;2022-10-26T00:05:31;100072.87;;;15.26;54.91
63663;BME280;49815;51.618;0.336;2022-10-26T00:07:53;100074.68;;;14.84;54.71
63663;BME280;49815;51.618;0.336;2022-10-26T00:10:19;100074.05;;;14.99;55.32
63663;BME280;49815;51.618;0.336;2022-10-26T00:12:47;100070.26;;;14.95;55.33
63663;BME280;49815;51.618;0.336;2022-10-26T00:15:10;100065.94;;;15.22;55.09
63663;BME280;49815;51.618;0.336;2022-10-26T00:17:34;100063.59;;;14.75;55.45
63663;BME280;49815;51.618;0.336;2022-10-26T00:20:00;100060.63;;;15.00;55.02
63663;BME280;49815;51.618;0.336;2022-10-26T00:22:25;100060.05;;;14.62;55.70
63663;BME280;49815;51.618;0.336;2022-10-26T00:24:50;100059.88;;;15.03;55.63
63663;BME280;49815;51.618;0.336;2022-10-26T00:27:16;100056.47;;;15.02;55.11
63663;BME280;49815;51.618;0.336;2022-10-26T00:29:41;100052.53;;;15.37;54.94
63663;BME280;49815;51.618;0.336;2022-10-26T00:32:07;100054.40;;;15.00;55.15
63663;BME280;49815;51.618;0.336;2022-10-26T00:34:32;100051.62;;;15.13;54.49
63663;BME280;49815;51.618;0.336;2022-10-26T00:36:57;100049.87;;;15.24;55.12
63663;BME280;49815;51.618;0.336;2022-10-26T00:39:23;100041.70;;;15.33;54.98
63663;BME280;49815;51.618;0.336;2022-10-26T00:41:48;100037.32;;;15.11;54.88
63663;BME280;49815;51.618;0.336;2022-10-26T00:46:38;100030.89;;;15.52;54.67
63663;BME280;49815;51.618;0.336;2022-10-26T00:49:07;100032.69;;;15.60;54.06
63663;BME280;49815;51.618;0.336;2022-10-26T00:51:32;100035.22;;;15.85;54.02
63663;BME280;49815;51.618;0.336;2022-10-26T00:53:55;100031.92;;;15.63;54.43
63663;BME280;49815;51.618;0.336;2022-10-26T00:56:20;100031.06;;;15.30;54.65
63663;BME280;49815;51.618;0.336;2022-10-26T00:58:46;100033.55;;;15.46;54.06
63663;BME280;49815;51.618;0.336;2022-10-26T01:01:10;100034.95;;;14.88;55.77
63663;BME280;49815;51.618;0.336;2022-10-26T01:03:36;100035.50;;;15.51;54.67
63663;BME280;49815;51.618;0.336;2022-10-26T01:06:01;100041.38;;;15.58;54.52
63663;BME280;49815;51.618;0.336;2022-10-26T01:08:26;100044.11;;;15.41;54.94
63663;BME280;49815;51.618;0.336;2022-10-26T01:10:51;100043.06;;;15.48;54.77
63663;BME280;49815;51.618;0.336;2022-10-26T01:13:17;100038.16;;;14.73;55.32
63663;BME280;49815;51.618;0.336;2022-10-26T01:15:48;100031.86;;;15.40;54.50
63663;BME280;49815;51.618;0.336;2022-10-26T01:18:10;100032.23;;;15.02;55.23
63663;BME280;49815;51.618;0.336;2022-10-26T01:20:49;100025.69;;;14.93;55.52
63663;BME280;49815;51.618;0.336;2022-10-26T01:23:04;100021.04;;;14.79;55.74
63663;BME280;49815;51.618;0.336;2022-10-26T01:27:50;100020.37;;;14.87;56.11
63663;BME280;49815;51.618;0.336;2022-10-26T01:30:18;100020.38;;;15.21;55.55
63663;BME280;49815;51.618;0.336;2022-10-26T01:32:45;100012.53;;;15.13;55.74
63663;BME280;49815;51.618;0.336;2022-10-26T01:35:08;100009.73;;;15.15;55.68
63663;BME280;49815;51.618;0.336;2022-10-26T01:37:35;100006.41;;;14.69;56.74
63663;BME280;49815;51.618;0.336;2022-10-26T01:40:01;100000.18;;;14.88;56.37
63663;BME280;49815;51.618;0.336;2022-10-26T01:42:22;99993.02;;;14.93;55.82
63663;BME280;49815;51.618;0.336;2022-10-26T01:44:50;99994.84;;;15.38;55.44
63663;BME280;49815;51.618;0.336;2022-10-26T01:47:13;100001.04;;;15.11;55.88
63663;BME280;49815;51.618;0.336;2022-10-26T01:49:40;100008.23;;;14.31;57.41
63663;BME280;49815;51.618;0.336;2022-10-26T01:52:03;100011.45;;;14.99;57.26
63663;BME280;49815;51.618;0.336;2022-10-26T01:54:27;100007.18;;;15.06;56.70
63663;BME280;49815;51.618;0.336;2022-10-26T01:56:54;100003.25;;;14.84;56.63
63663;BME280;49815;51.618;0.336;2022-10-26T01:59:25;100000.06;;;14.33;57.52
63663;BME280;49815;51.618;0.336;2022-10-26T02:01:59;99998.40;;;14.20;57.76
63663;BME280;49815;51.618;0.336;2022-10-26T02:04:18;99998.82;;;14.53;57.26
63663;BME280;49815;51.618;0.336;2022-10-26T02:06:41;99997.25;;;14.38;57.68
63663;BME280;49815;51.618;0.336;2022-10-26T02:09:05;99995.83;;;14.71;57.35
63663;BME280;49815;51.618;0.336;2022-10-26T02:11:35;99990.61;;;14.95;57.30
63663;BME280;49815;51.618;0.336;2022-10-26T02:13:54;99988.04;;;14.42;57.54
63663;BME280;49815;51.618;0.336;2022-10-26T02:16:22;99983.33;;;14.55;58.30
63663;BME280;49815;51.618;0.336;2022-10-26T02:18:45;99989.16;;;14.86;57.00
63663;BME280;49815;51.618;0.336;2022-10-26T02:21:10;100001.18;;;14.94;56.56
63663;BME280;49815;51.618;0.336;2022-10-26T02:23:35;100000.61;;;14.80;57.55
63663;BME280;49815;51.618;0.336;2022-10-26T02:25:59;99999.01;;;14.35;57.85
63663;BME280;49815;51.618;0.336;2022-10-26T02:28:27;100000.94;;;14.63;57.42
63663;BME280;49815;51.618;0.336;2022-10-26T02:30:52;100006.34;;;14.12;58.21
63663;BME280;49815;51.618;0.336;2022-10-26T02:33:14;100006.73;;;14.91;57.30
63663;BME280;49815;51.618;0.336;2022-10-26T02:35:40;100007.81;;;15.07;57.17
63663;BME280;49815;51.618;0.336;2022-10-26T02:38:07;100001.90;;;14.75;57.21
63663;BME280;49815;51.618;0.336;2022-10-26T02:40:31;100003.63;;;14.30;58.01
63663;BME280;49815;51.618;0.336;2022-10-26T02:42:58;99993.02;;;14.59;57.56
63663;BME280;49815;51.618;0.336;2022-10-26T02:45:23;99989.83;;;14.36;57.93
63663;BME280;49815;51.618;0.336;2022-10-26T02:47:46;99991.26;;;14.84;57.03
63663;BME280;49815;51.618;0.336;2022-10-26T02:50:11;99986.94;;;14.56;57.44
63663;BME280;49815;51.618;0.336;2022-10-26T02:52:43;99986.44;;;14.30;58.11
63663;BME280;49815;51.618;0.336;2022-10-26T02:55:06;99978.88;;;15.00;57.14
63663;BME280;49815;51.618;0.336;2022-10-26T02:57:30;99971.77;;;14.78;57.57
63663;BME280;49815;51.618;0.336;2022-10-26T02:59:53;99973.50;;;14.68;57.22
63663;BME280;49815;51.618;0.336;2022-10-26T03:02:20;99968.24;;;14.70;57.05
63663;BME280;49815;51.618;0.336;2022-10-26T03:04:49;99965.35;;;14.79;57.35
63663;BME280;49815;51.618;0.336;2022-10-26T03:07:10;99966.17;;;14.83;56.62
63663;BME280;49815;51.618;0.336;2022-10-26T03:09:35;99963.27;;;14.13;58.25
63663;BME280;49815;51.618;0.336;2022-10-26T03:12:00;99963.89;;;14.17;58.30
63663;BME280;49815;51.618;0.336;2022-10-26T03:14:25;99965.75;;;14.20;58.07
63663;BME280;49815;51.618;0.336;2022-10-26T03:16:50;99962.20;;;14.28;58.01
63663;BME280;49815;51.618;0.336;2022-10-26T03:19:16;99951.69;;;14.79;58.11
63663;BME280;49815;51.618;0.336;2022-10-26T03:21:41;99953.84;;;14.56;57.42
63663;BME280;49815;51.618;0.336;2022-10-26T03:24:07;99953.48;;;14.41;58.76
63663;BME280;49815;51.618;0.336;2022-10-26T03:26:32;99957.29;;;14.68;58.15
63663;BME280;49815;51.618;0.336;2022-10-26T03:28:58;99956.70;;;14.36;58.23
63663;BME280;49815;51.618;0.336;2022-10-26T03:31:23;99951.08;;;14.37;58.92
63663;BME280;49815;51.618;0.336;2022-10-26T03:33:48;99951.13;;;14.29;58.56
63663;BME280;49815;51.618;0.336;2022-10-26T03:36:14;99949.57;;;14.24;59.07
63663;BME280;49815;51.618;0.336;2022-10-26T03:38:39;99951.18;;;13.95;59.66
63663;BME280;49815;51.618;0.336;2022-10-26T03:41:05;99951.46;;;14.14;59.24
63663;BME280;49815;51.618;0.336;2022-10-26T03:43:30;99958.63;;;13.53;60.61
63663;BME280;49815;51.618;0.336;2022-10-26T03:45:56;99953.53;;;14.07;59.61
63663;BME280;49815;51.618;0.336;2022-10-26T03:48:21;99950.06;;;14.00;59.86
63663;BME280;49815;51.618;0.336;2022-10-26T03:50:46;99946.00;;;13.95;59.49
63663;BME280;49815;51.618;0.336;2022-10-26T03:53:12;99944.12;;;13.74;60.31
63663;BME280;49815;51.618;0.336;2022-10-26T03:55:37;99942.92;;;14.22;59.33
63663;BME280;49815;51.618;0.336;2022-10-26T03:58:03;99944.01;;;13.90;59.02
63663;BME280;49815;51.618;0.336;2022-10-26T04:00:28;99942.53;;;13.65;60.06
63663;BME280;49815;51.618;0.336;2022-10-26T04:02:55;99926.58;;;14.03;59.77
63663;BME280;49815;51.618;0.336;2022-10-26T04:05:18;99922.89;;;13.61;59.71
63663;BME280;49815;51.618;0.336;2022-10-26T04:07:48;99932.88;;;13.64;60.51
63663;BME280;49815;51.618;0.336;2022-10-26T04:10:09;99934.43;;;13.89;60.59
63663;BME280;49815;51.618;0.336;2022-10-26T04:12:35;99938.34;;;13.80;60.83
63663;BME280;49815;51.618;0.336;2022-10-26T04:14:59;99934.58;;;13.95;61.21
63663;BME280;49815;51.618;0.336;2022-10-26T04:17:24;99947.04;;;13.74;61.13
63663;BME280;49815;51.618;0.336;2022-10-26T04:19:50;99949.85;;;13.59;61.07
63663;BME280;49815;51.618;0.336;2022-10-26T04:22:15;99951.92;;;13.44;60.65
63663;BME280;49815;51.618;0.336;2022-10-26T04:24:40;99955.68;;;13.71;60.77
63663;BME280;49815;51.618;0.336;2022-10-26T04:27:06;99958.38;;;13.65;60.81
63663;BME280;49815;51.618;0.336;2022-10-26T04:29:32;99961.29;;;13.77;60.61
63663;BME280;49815;51.618;0.336;2022-10-26T04:31:57;99964.76;;;13.34;61.62
63663;BME280;49815;51.618;0.336;2022-10-26T04:34:22;99969.34;;;13.73;61.81
63663;BME280;49815;51.618;0.336;2022-10-26T04:36:48;99972.31;;;13.72;61.39
63663;BME280;49815;51.618;0.336;2022-10-26T04:39:13;99971.61;;;13.76;60.90
63663;BME280;49815;51.618;0.336;2022-10-26T04:41:39;99977.67;;;14.31;59.18
63663;BME280;49815;51.618;0.336;2022-10-26T04:44:04;99979.38;;;14.07;59.69
63663;BME280;49815;51.618;0.336;2022-10-26T04:46:30;99977.26;;;14.37;60.00
63663;BME280;49815;51.618;0.336;2022-10-26T04:48:55;99980.34;;;14.54;58.72
63663;BME280;49815;51.618;0.336;2022-10-26T04:51:20;99985.12;;;14.65;59.16
63663;BME280;49815;51.618;0.336;2022-10-26T04:53:47;99978.82;;;14.81;58.34
63663;BME280;49815;51.618;0.336;2022-10-26T04:56:12;99980.06;;;14.62;58.46
63663;BME280;49815;51.618;0.336;2022-10-26T04:58:37;99977.84;;;15.32;58.18
63663;BME280;49815;51.618;0.336;2022-10-26T05:01:04;99973.22;;;15.03;57.61
63663;BME280;49815;51.618;0.336;2022-10-26T05:03:27;99977.88;;;14.71;58.29
63663;BME280;49815;51.618;0.336;2022-10-26T05:05:53;99977.84;;;14.81;58.15
63663;BME280;49815;51.618;0.336;2022-10-26T05:08:18;99985.05;;;14.36;59.41
63663;BME280;49815;51.618;0.336;2022-10-26T05:10:47;99983.64;;;14.98;58.22
63663;BME280;49815;51.618;0.336;2022-10-26T05:13:09;99975.99;;;15.07;58.00
63663;BME280;49815;51.618;0.336;2022-10-26T05:15:34;99981.53;;;14.99;58.18
63663;BME280;49815;51.618;0.336;2022-10-26T05:18:01;99983.44;;;15.03;57.54
63663;BME280;49815;51.618;0.336;2022-10-26T05:20:25;99982.78;;;15.46;56.86
63663;BME280;49815;51.618;0.336;2022-10-26T05:22:52;99987.64;;;15.30;56.67
63663;BME280;49815;51.618;0.336;2022-10-26T05:25:15;99989.44;;;15.77;56.57
63663;BME280;49815;51.618;0.336;2022-10-26T05:27:41;99996.70;;;15.34;56.94
63663;BME280;49815;51.618;0.336;2022-10-26T05:30:07;99998.89;;;15.65;57.05
63663;BME280;49815;51.618;0.336;2022-10-26T05:32:31;99999.79;;;15.28;57.07
63663;BME280;49815;51.618;0.336;2022-10-26T05:34:57;99999.90;;;15.60;56.06
63663;BME280;49815;51.618;0.336;2022-10-26T05:37:22;99996.78;;;15.85;55.40
63663;BME280;49815;51.618;0.336;2022-10-26T05:39:47;99994.93;;;15.70;56.06
63663;BME280;49815;51.618;0.336;2022-10-26T05:42:13;99998.92;;;15.26;56.53
63663;BME280;49815;51.618;0.336;2022-10-26T05:44:38;100005.16;;;15.19;56.51
63663;BME280;49815;51.618;0.336;2022-10-26T05:47:03;100005.39;;;15.49;55.95
63663;BME280;49815;51.618;0.336;2022-10-26T05:49:29;100011.75;;;15.82;56.48
63663;BME280;49815;51.618;0.336;2022-10-26T05:51:54;100019.12;;;15.64;56.44
63663;BME280;49815;51.618;0.336;2022-10-26T05:54:19;100026.12;;;15.56;56.70
63663;BME280;49815;51.618;0.336;2022-10-26T05:56:45;100029.29;;;15.38;56.96
63663;BME280;49815;51.618;0.336;2022-10-26T05:59:12;100029.90;;;15.94;56.47
63663;BME280;49815;51.618;0.336;2022-10-26T06:01:45;100033.04;;;15.94;56.73
63663;BME280;49815;51.618;0.336;2022-10-26T06:04:11;100040.32;;;15.29;57.27
63663;BME280;49815;51.618;0.336;2022-10-26T06:06:27;100037.70;;;15.40;57.10
63663;BME280;49815;51.618;0.336;2022-10-26T06:08:52;100038.98;;;15.26;57.36
63663;BME280;49815;51.618;0.336;2022-10-26T06:11:17;100043.76;;;15.47;56.93
63663;BME280;49815;51.618;0.336;2022-10-26T06:13:42;100048.28;;;14.91;58.39
63663;BME280;49815;51.618;0.336;2022-10-26T06:16:20;100057.72;;;14.25;59.65
63663;BME280;49815;51.618;0.336;2022-10-26T06:18:41;100064.32;;;14.63;59.26
63663;BME280;49815;51.618;0.336;2022-10-26T06:21:08;100073.69;;;14.59;59.61
63663;BME280;49815;51.618;0.336;2022-10-26T06:23:35;100072.89;;;13.72;60.92
63663;BME280;49815;51.618;0.336;2022-10-26T06:25:54;100076.93;;;14.11;59.48
63663;BME280;49815;51.618;0.336;2022-10-26T06:28:23;100078.81;;;14.12;59.23
63663;BME280;49815;51.618;0.336;2022-10-26T06:30:39;100083.47;;;14.33;59.35
63663;BME280;49815;51.618;0.336;2022-10-26T06:33:06;100086.06;;;14.68;59.15
63663;BME280;49815;51.618;0.336;2022-10-26T06:35:36;100090.97;;;14.74;58.87
63663;BME280;49815;51.618;0.336;2022-10-26T06:37:59;100089.16;;;14.88;57.52
63663;BME280;49815;51.618;0.336;2022-10-26T06:40:21;100091.81;;;14.63;57.80
63663;BME280;49815;51.618;0.336;2022-10-26T06:42:46;100094.62;;;14.21;59.45
63663;BME280;49815;51.618;0.336;2022-10-26T06:45:13;100097.53;;;14.87;57.76
63663;BME280;49815;51.618;0.336;2022-10-26T06:47:39;100095.71;;;14.71;58.39
63663;BME280;49815;51.618;0.336;2022-10-26T06:50:10;100097.62;;;14.52;59.07
63663;BME280;49815;51.618;0.336;2022-10-26T06:52:33;100103.67;;;14.68;57.62
63663;BME280;49815;51.618;0.336;2022-10-26T06:54:54;100107.52;;;14.26;57.72
63663;BME280;49815;51.618;0.336;2022-10-26T06:57:20;100106.08;;;14.37;57.48
63663;BME280;49815;51.618;0.336;2022-10-26T06:59:45;100106.74;;;14.42;56.73
63663;BME280;49815;51.618;0.336;2022-10-26T07:02:08;100116.45;;;14.76;56.41
63663;BME280;49815;51.618;0.336;2022-10-26T07:04:34;100109.51;;;14.92;55.91
63663;BME280;49815;51.618;0.336;2022-10-26T07:06:59;100105.69;;;14.66;56.49
63663;BME280;49815;51.618;0.336;2022-10-26T07:09:24;100110.39;;;15.07;55.79
63663;BME280;49815;51.618;0.336;2022-10-26T07:11:50;100115.45;;;15.08;55.36
63663;BME280;49815;51.618;0.336;2022-10-26T07:14:15;100121.96;;;15.35;55.19
63663;BME280;49815;51.618;0.336;2022-10-26T07:16:40;100126.70;;;15.64;54.68
63663;BME280;49815;51.618;0.336;2022-10-26T07:19:06;100129.76;;;15.36;54.63
63663;BME280;49815;51.618;0.336;2022-10-26T07:21:31;100137.34;;;15.66;53.61
63663;BME280;49815;51.618;0.336;2022-10-26T07:23:56;100133.84;;;15.49;54.46
63663;BME280;49815;51.618;0.336;2022-10-26T07:26:21;100139.90;;;15.70;54.36
63663;BME280;49815;51.618;0.336;2022-10-26T07:28:47;100141.73;;;15.39;54.40
63663;BME280;49815;51.618;0.336;2022-10-26T07:31:12;100146.16;;;15.62;54.47
63663;BME280;49815;51.618;0.336;2022-10-26T07:33:37;100146.69;;;15.89;54.02
63663;BME280;49815;51.618;0.336;2022-10-26T07:36:02;100155.71;;;15.49;53.95
63663;BME280;49815;51.618;0.336;2022-10-26T07:38:27;100157.60;;;14.92;54.99
63663;BME280;49815;51.618;0.336;2022-10-26T07:40:53;100158.11;;;15.25;54.54
63663;BME280;49815;51.618;0.336;2022-10-26T07:43:18;100154.63;;;15.86;53.91
63663;BME280;49815;51.618;0.336;2022-10-26T07:45:44;100150.14;;;15.33;54.53
63663;BME280;49815;51.618;0.336;2022-10-26T07:48:08;100148.44;;;15.44;54.80
63663;BME280;49815;51.618;0.336;2022-10-26T07:50:34;100157.22;;;15.81;54.77
63663;BME280;49815;51.618;0.336;2022-10-26T07:52:59;100155.91;;;15.85;54.80
63663;BME280;49815;51.618;0.336;2022-10-26T07:55:24;100161.26;;;15.75;54.18
63663;BME280;49815;51.618;0.336;2022-10-26T07:57:49;100159.05;;;15.53;55.02
63663;BME280;49815;51.618;0.336;2022-10-26T08:00:15;100165.26;;;15.80;54.39
63663;BME280;49815;51.618;0.336;2022-10-26T08:02:40;100167.40;;;15.53;55.39
63663;BME280;49815;51.618;0.336;2022-10-26T08:05:06;100174.62;;;15.65;55.22
63663;BME280;49815;51.618;0.336;2022-10-26T08:07:30;100176.00;;;16.21;54.21
63663;BME280;49815;51.618;0.336;2022-10-26T08:09:56;100175.13;;;15.95;55.12
63663;BME280;49815;51.618;0.336;2022-10-26T08:12:21;100179.77;;;15.35;56.37
63663;BME280;49815;51.618;0.336;2022-10-26T08:14:47;100181.40;;;15.09;56.83
63663;BME280;49815;51.618;0.336;2022-10-26T08:17:12;100179.83;;;15.04;57.05
63663;BME280;49815;51.618;0.336;2022-10-26T08:19:37;100186.95;;;15.07;56.45
63663;BME280;49815;51.618;0.336;2022-10-26T08:22:03;100186.35;;;15.63;55.49
63663;BME280;49815;51.618;0.336;2022-10-26T08:24:28;100193.72;;;15.69;55.73
63663;BME280;49815;51.618;0.336;2022-10-26T08:26:53;100193.28;;;15.55;55.99
63663;BME280;49815;51.618;0.336;2022-10-26T08:29:18;100193.31;;;15.73;55.61
63663;BME280;49815;51.618;0.336;2022-10-26T08:31:46;100190.30;;;16.05;55.15
63663;BME280;49815;51.618;0.336;2022-10-26T08:34:09;100194.50;;;14.70;57.80
63663;BME280;49815;51.618;0.336;2022-10-26T08:36:34;100195.17;;;14.87;57.43
63663;BME280;49815;51.618;0.336;2022-10-26T08:38:59;100194.01;;;15.09;57.16
63663;BME280;49815;51.618;0.336;2022-10-26T08:41:34;100200.20;;;15.39;56.49
63663;BME280;49815;51.618;0.336;2022-10-26T08:43:54;100205.82;;;16.40;54.96
63663;BME280;49815;51.618;0.336;2022-10-26T08:46:19;100212.32;;;15.27;56.40
63663;BME280;49815;51.618;0.336;2022-10-26T08:48:45;100211.67;;;15.42;56.62
63663;BME280;49815;51.618;0.336;2022-10-26T08:51:11;100210.67;;;15.59;56.53
63663;BME280;49815;51.618;0.336;2022-10-26T08:53:35;100218.29;;;15.49;56.39
63663;BME280;49815;51.618;0.336;2022-10-26T08:55:59;100225.10;;;15.51;55.94
63663;BME280;49815;51.618;0.336;2022-10-26T08:58:24;100223.64;;;16.25;55.16
63663;BME280;49815;51.618;0.336;2022-10-26T09:00:48;100227.14;;;15.73;55.91
63663;BME280;49815;51.618;0.336;2022-10-26T09:03:13;100227.97;;;15.87;55.85
63663;BME280;49815;51.618;0.336;2022-10-26T09:05:41;100227.92;;;16.35;54.68
63663;BME280;49815;51.618;0.336;2022-10-26T09:08:06;100228.08;;;16.72;53.54
63663;BME280;49815;51.618;0.336;2022-10-26T09:10:36;100224.04;;;16.42;54.76
63663;BME280;49815;51.618;0.336;2022-10-26T09:12:57;100225.41;;;16.79;54.03
63663;BME280;49815;51.618;0.336;2022-10-26T09:15:24;100227.28;;;16.88;53.90
63663;BME280;49815;51.618;0.336;2022-10-26T09:17:52;100227.64;;;17.01;52.95
63663;BME280;49815;51.618;0.336;2022-10-26T09:20:21;100228.42;;;16.81;53.49
63663;BME280;49815;51.618;0.336;2022-10-26T09:22:40;100224.23;;;16.97;52.95
63663;BME280;49815;51.618;0.336;2022-10-26T09:25:04;100228.87;;;16.60;53.70
63663;BME280;49815;51.618;0.336;2022-10-26T09:27:27;100220.04;;;17.00;53.00
63663;BME280;49815;51.618;0.336;2022-10-26T09:29:50;100229.49;;;17.44;52.21
63663;BME280;49815;51.618;0.336;2022-10-26T09:32:18;100235.33;;;16.47;52.99
63663;BME280;49815;51.618;0.336;2022-10-26T09:34:45;100230.80;;;17.11;52.89
63663;BME280;49815;51.618;0.336;2022-10-26T09:37:12;100230.01;;;16.86;53.21
63663;BME280;49815;51.618;0.336;2022-10-26T09:39:35;100220.05;;;17.01;52.90
63663;BME280;49815;51.618;0.336;2022-10-26T09:41:59;100219.16;;;17.51;52.51
63663;BME280;49815;51.618;0.336;2022-10-26T09:44:24;100217.32;;;17.42;52.71
63663;BME280;49815;51.618;0.336;2022-10-26T09:46:54;100228.36;;;16.73;51.72
63663;BME280;49815;51.618;0.336;2022-10-26T09:49:14;100224.56;;;17.41;52.32
63663;BME280;49815;51.618;0.336;2022-10-26T09:51:38;100231.78;;;17.11;51.89
63663;BME280;49815;51.618;0.336;2022-10-26T09:54:06;100240.64;;;17.58;51.14
63663;BME280;49815;51.618;0.336;2022-10-26T09:56:28;100236.14;;;17.07;52.15
63663;BME280;49815;51.618;0.336;2022-10-26T09:58:56;100240.63;;;16.71;53.06
63663;BME280;49815;51.618;0.336;2022-10-26T10:01:28;100253.75;;;16.51;53.68
63663;BME280;49815;51.618;0.336;2022-10-26T10:03:44;100261.21;;;16.41;54.51
63663;BME280;49815;51.618;0.336;2022-10-26T10:06:15;100265.79;;;16.44;54.23
63663;BME280;49815;51.618;0.336;2022-10-26T10:08:34;100262.21;;;15.90;55.44
63663;BME280;49815;51.618;0.336;2022-10-26T10:11:02;100268.06;;;15.57;56.37
63663;BME280;49815;51.618;0.336;2022-10-26T10:13:26;100273.88;;;15.74;55.76
63663;BME280;49815;51.618;0.336;2022-10-26T10:15:52;100270.10;;;16.47;54.73
63663;BME280;49815;51.618;0.336;2022-10-26T10:18:18;100269.66;;;15.80;55.38
63663;BME280;49815;51.618;0.336;2022-10-26T10:20:40;100271.32;;;16.10;55.06
63663;BME280;49815;51.618;0.336;2022-10-26T10:23:05;100273.91;;;15.57;55.59
63663;BME280;49815;51.618;0.336;2022-10-26T10:25:33;100275.21;;;16.25;55.25
63663;BME280;49815;51.618;0.336;2022-10-26T10:27:55;100271.48;;;16.62;53.78
63663;BME280;49815;51.618;0.336;2022-10-26T10:30:23;100285.73;;;16.41;55.00
63663;BME280;49815;51.618;0.336;2022-10-26T10:35:21;100286.96;;;17.15;53.61
63663;BME280;49815;51.618;0.336;2022-10-26T10:37:38;100297.94;;;17.76;52.38
63663;BME280;49815;51.618;0.336;2022-10-26T10:40:04;100298.91;;;17.02;53.51
63663;BME280;49815;51.618;0.336;2022-10-26T10:42:31;100297.86;;;16.80;54.04
63663;BME280;49815;51.618;0.336;2022-10-26T10:44:54;100297.09;;;17.55;52.85
63663;BME280;49815;51.618;0.336;2022-10-26T10:47:22;100304.28;;;17.51;52.56
63663;BME280;49815;51.618;0.336;2022-10-26T10:49:50;100314.97;;;17.62;52.86
63663;BME280;49815;51.618;0.336;2022-10-26T10:54:35;100319.83;;;17.35;53.13
63663;BME280;49815;51.618;0.336;2022-10-26T10:57:07;100319.04;;;17.31;53.15
63663;BME280;49815;51.618;0.336;2022-10-26T10:59:38;100319.58;;;17.93;51.75
63663;BME280;49815;51.618;0.336;2022-10-26T11:01:56;100323.62;;;17.95;51.63
63663;BME280;49815;51.618;0.336;2022-10-26T11:04:28;100332.84;;;18.25;51.79
63663;BME280;49815;51.618;0.336;2022-10-26T11:06:40;100330.72;;;17.48;52.17
63663;BME280;49815;51.618;0.336;2022-10-26T11:09:06;100336.81;;;18.73;49.97
63663;BME280;49815;51.618;0.336;2022-10-26T11:11:33;100332.29;;;18.03;50.60
63663;BME280;49815;51.618;0.336;2022-10-26T11:13:59;100340.13;;;17.57;50.58
63663;BME280;49815;51.618;0.336;2022-10-26T11:16:23;100347.58;;;18.53;50.10
63663;BME280;49815;51.618;0.336;2022-10-26T11:18:49;100351.30;;;19.21;48.36
63663;BME280;49815;51.618;0.336;2022-10-26T11:21:19;100354.42;;;17.32;50.74
63663;BME280;49815;51.618;0.336;2022-10-26T11:23:38;100361.35;;;17.96;50.68
63663;BME280;49815;51.618;0.336;2022-10-26T11:26:07;100356.01;;;17.46;50.42
63663;BME280;49815;51.618;0.336;2022-10-26T11:28:36;100357.88;;;17.70;50.21
63663;BME280;49815;51.618;0.336;2022-10-26T11:30:56;100363.98;;;17.23;50.14
63663;BME280;49815;51.618;0.336;2022-10-26T11:33:22;100353.28;;;18.23;49.26
63663;BME280;49815;51.618;0.336;2022-10-26T11:35:44;100356.59;;;17.82;48.08
63663;BME280;49815;51.618;0.336;2022-10-26T11:38:14;100358.47;;;17.04;48.30
63663;BME280;49815;51.618;0.336;2022-10-26T11:40:37;100363.21;;;17.20;48.36
63663;BME280;49815;51.618;0.336;2022-10-26T11:43:05;100360.61;;;17.51;47.89
63663;BME280;49815;51.618;0.336;2022-10-26T11:45:24;100365.07;;;17.23;46.93
63663;BME280;49815;51.618;0.336;2022-10-26T11:47:50;100370.38;;;17.39;46.82
63663;BME280;49815;51.618;0.336;2022-10-26T11:50:16;100373.08;;;17.11;47.04
63663;BME280;49815;51.618;0.336;2022-10-26T11:52:42;100369.59;;;17.19;46.63
63663;BME280;49815;51.618;0.336;2022-10-26T11:55:03;100383.60;;;17.49;45.41
63663;BME280;49815;51.618;0.336;2022-10-26T11:57:29;100380.08;;;17.64;45.06
63663;BME280;49815;51.618;0.336;2022-10-26T11:59:57;100385.03;;;17.65;45.18
63663;BME280;49815;51.618;0.336;2022-10-26T12:02:20;100383.90;;;18.05;44.93
63663;BME280;49815;51.618;0.336;2022-10-26T12:04:48;100392.25;;;18.25;44.08
63663;BME280;49815;51.618;0.336;2022-10-26T12:07:14;100390.10;;;18.34;43.74
63663;BME280;49815;51.618;0.336;2022-10-26T12:09:36;100395.36;;;18.66;44.01
63663;BME280;49815;51.618;0.336;2022-10-26T12:12:05;100403.35;;;18.02;44.68
63663;BME280;49815;51.618;0.336;2022-10-26T12:14:26;100405.47;;;17.62;45.88
63663;BME280;49815;51.618;0.336;2022-10-26T12:16:55;100400.46;;;17.61;44.35
63663;BME280;49815;51.618;0.336;2022-10-26T12:19:19;100405.69;;;18.50;42.58
63663;BME280;49815;51.618;0.336;2022-10-26T12:21:40;100399.94;;;17.65;44.02
63663;BME280;49815;51.618;0.336;2022-10-26T12:26:37;100421.76;;;17.83;41.97
63663;BME280;49815;51.618;0.336;2022-10-26T12:29:12;100411.33;;;18.29;41.66
63663;BME280;49815;51.618;0.336;2022-10-26T12:33:49;100431.58;;;18.41;41.29
63663;BME280;49815;51.618;0.336;2022-10-26T12:41:17;100438.33;;;18.59;40.24
63663;BME280;49815;51.618;0.336;2022-10-26T12:43:34;100442.07;;;18.26;40.74
63663;BME280;49815;51.618;0.336;2022-10-26T12:48:21;100464.68;;;18.04;40.78
63663;BME280;49815;51.618;0.336;2022-10-26T12:50:42;100452.74;;;18.10;40.75
63663;BME280;49815;51.618;0.336;2022-10-26T12:53:10;100456.84;;;18.71;40.30
63663;BME280;49815;51.618;0.336;2022-10-26T12:55:46;100466.50;;;18.03;40.64
63663;BME280;49815;51.618;0.336;2022-10-26T12:58:08;100466.34;;;17.81;41.46
63663;BME280;49815;51.618;0.336;2022-10-26T13:00:25;100469.10;;;17.48;41.90
63663;BME280;49815;51.618;0.336;2022-10-26T13:02:59;100473.15;;;17.53;42.00